• Join FlightAware (Why Join?)
  • Login
  • US Flag 
02:02AM EDT


 

Airport Tracker/Info


-or-


 

Live Flight TrackerFlight Track Log ✈ SWA2871 ✈ 01-May-2013 ✈ KJAX - KLAS

Flight Track Log - Related Links

Times and Time Zones

All times are in EDT time to prevent confusion due to time zone crossing. See the SWA2871 flight status page for this flight to view local times or setup timezone preferences in your user account.

Time Position Orientation Groundspeed Altitude Reporting Facility
EDT Latitude Longitude Course Direction KTS MPH feet Rate Location/Type
11:20AM 30.4406 -81.7072 222° Southwest 223 257 2,800  Level Jacksonville Center
11:21AM 30.4331 -81.7867 264° West 297 342 5,200 2,880 Climbing Jacksonville Center
11:22AM 30.4275 -81.8758 266° West 302 348 8,800 2,940 Climbing Jacksonville Center
11:23AM 30.4219 -81.9722 266° West 297 342 11,100 2,460 Climbing Jacksonville Center
11:24AM 30.4142 -82.0856 265° West 323 372 13,800 2,760 Climbing Jacksonville Center
11:25AM 30.4067 -82.2206 266° West 387 445 16,700 2,700 Climbing Jacksonville Center
11:26AM 30.4011 -82.3361 267° West 405 466 19,300 2,340 Climbing Jacksonville Center
11:27AM 30.4350 -82.4564 288° West 394 453 21,400 2,040 Climbing Jacksonville Center
11:28AM 30.4875 -82.5767 297° West 402 463 23,400 1,260 Climbing Jacksonville Center
11:29AM 30.5483 -82.7117 298° West 411 473 24,000 900 Climbing Jacksonville Center
11:30AM 30.5900 -82.8297 292° West 430 495 25,300 1,620 Climbing Jacksonville Center
11:31AM 30.6047 -82.9819 276° West 430 495 27,300 1,740 Climbing Jacksonville Center
11:32AM 30.6003 -83.1242 268° West 435 501 28,800 1,680 Climbing Jacksonville Center
11:33AM 30.5939 -83.2714 267° West 442 509 30,700 1,980 Climbing Jacksonville Center
11:34AM 30.6142 -83.4067 280° West 448 516 32,800 1,920 Climbing Jacksonville Center
11:35AM 30.6553 -83.5372 290° West 428 493 34,600 1,440 Climbing Jacksonville Center
11:36AM 30.6861 -83.6511 288° West 428 493 35,700 1,200 Climbing Jacksonville Center
11:37AM 30.7228 -83.7842 288° West 428 493 37,000 1,140 Climbing Jacksonville Center
11:38AM 30.7594 -83.9153 288° West 423 487 38,000 480 Climbing Jacksonville Center
11:39AM 30.7958 -84.0389 289° West 423 487 38,000  Level Jacksonville Center
11:40AM 30.8322 -84.1675 288° West 423 487 38,000  Level Jacksonville Center
11:41AM 30.8725 -84.3083 288° West 423 487 38,000  Level Jacksonville Center
11:42AM 30.9106 -84.4375 289° West 423 487 38,000  Level Jacksonville Center
11:43AM 30.9444 -84.5664 287° West 423 487 38,000  Level Jacksonville Center
11:44AM 30.9825 -84.6931 289° West 423 487 38,000  Level Jacksonville Center
11:45AM 31.0103 -84.7978 287° West 423 487 38,000  Level Jacksonville Center
11:46AM 31.0519 -84.9392 289° West 423 487 38,000  Level Jacksonville Center
11:47AM 31.0931 -85.0881 288° West 429 494 38,000  Level Jacksonville Center
11:48AM 31.1244 -85.2028 288° West 429 494 38,000  Level Jacksonville Center
11:49AM 31.1597 -85.3275 288° West 423 487 38,000  Level Jacksonville Center
11:50AM 31.1931 -85.4475 288° West 411 473 38,000  Level Jacksonville Center
11:51AM 31.2258 -85.5747 287° West 406 467 38,000  Level Jacksonville Center
11:52AM 31.2606 -85.6997 288° West 406 467 38,000  Level Jacksonville Center
11:53AM 31.2892 -85.8292 285° West 401 461 38,000  Level Jacksonville Center
11:54AM 31.3258 -85.9569 289° West 406 467 38,000  Level Jacksonville Center
11:55AM 31.3619 -86.0919 287° West 417 480 38,000  Level Jacksonville Center
11:57AM 31.4269 -86.3311 288° West 426 490 38,000  Level Atlanta Center
11:58AM 31.4639 -86.4686 288° West 431 496 38,000  Level Atlanta Center
11:59AM 31.4989 -86.6058 287° West 438 504 38,000  Level Atlanta Center
12:00PM 31.5356 -86.7408 288° West 444 511 38,000  Level Atlanta Center
12:01PM 31.5700 -86.8808 286° West 444 511 38,000  Level Atlanta Center
12:02PM 31.6164 -87.0333 290° West 444 511 38,000  Level Atlanta Center
12:03PM 31.6506 -87.1686 287° West 444 511 38,000  Level Atlanta Center
12:05PM 31.7261 -87.4658 287° West 438 504 38,000  Level Memphis Center
12:06PM 31.7603 -87.5992 287° West 433 498 38,000  Level Memphis Center
12:07PM 31.7903 -87.7325 285° West 433 498 38,000  Level Memphis Center
12:08PM 31.8264 -87.8636 288° West 428 493 38,000  Level Memphis Center
12:09PM 31.8583 -87.9997 285° West 428 493 38,000  Level Memphis Center
12:10PM 31.8922 -88.1333 287° West 433 498 38,000  Level Memphis Center
12:11PM 31.9236 -88.2672 285° West 433 498 38,000  Level Memphis Center
12:12PM 31.9617 -88.4156 287° West 433 498 38,000  Level Memphis Center
12:13PM 31.9928 -88.5547 285° West 433 498 38,000  Level Memphis Center
12:14PM 32.0261 -88.6911 286° West 433 498 38,000  Level Memphis Center
12:15PM 32.0592 -88.8278 286° West 433 498 38,000  Level Memphis Center
12:16PM 32.0961 -88.9619 288° West 433 498 38,000  Level Memphis Center
12:17PM 32.1269 -89.1014 285° West 433 498 38,000  Level Memphis Center
12:18PM 32.1597 -89.2433 285° West 433 498 38,000  Level Memphis Center
12:19PM 32.1919 -89.3828 285° West 433 498 38,000  Level Memphis Center
12:20PM 32.2244 -89.5247 285° West 438 504 38,000  Level Memphis Center
12:21PM 32.2586 -89.6694 286° West 444 511 38,000  Level Memphis Center
12:22PM 32.2908 -89.8117 285° West 449 517 38,000  Level Memphis Center
12:23PM 32.3247 -89.9592 285° West 454 522 38,000  Level Memphis Center
12:24PM 32.3586 -90.1017 286° West 454 522 38,000  Level Memphis Center
12:25PM 32.3922 -90.2467 285° West 454 522 38,000  Level Memphis Center
12:26PM 32.4236 -90.3892 285° West 454 522 38,000  Level Memphis Center
12:27PM 32.4567 -90.5322 285° West 454 522 38,000  Level Memphis Center
12:28PM 32.4878 -90.6725 285° West 454 522 38,000  Level Memphis Center
12:29PM 32.5186 -90.8106 285° West 449 517 38,000  Level Memphis Center
12:30PM 32.5494 -90.9511 285° West 449 517 38,000  Level Memphis Center
12:32PM 32.6039 -91.1825 286° West 445 512 38,000  Level Fort Worth Center
12:33PM 32.6361 -91.3281 285° West 445 512 38,000  Level Fort Worth Center
12:34PM 32.6658 -91.4717 284° West 456 525 38,000  Level Fort Worth Center
12:35PM 32.6975 -91.6150 285° West 456 525 38,000  Level Fort Worth Center
12:36PM 32.7272 -91.7589 284° West 456 525 38,000  Level Fort Worth Center
12:37PM 32.7628 -91.9022 286° West 451 519 38,000  Level Fort Worth Center
12:38PM 32.7939 -92.0461 284° West 451 519 38,000  Level Fort Worth Center
12:39PM 32.8231 -92.1928 283° West 451 519 38,000  Level Fort Worth Center
12:40PM 32.8542 -92.3367 284° West 451 519 38,000  Level Fort Worth Center
12:41PM 32.8831 -92.4861 283° West 456 525 38,000  Level Fort Worth Center
12:42PM 32.9156 -92.6303 285° West 456 525 38,000  Level Fort Worth Center
12:43PM 32.9419 -92.7772 282° West 456 525 38,000  Level Fort Worth Center
12:44PM 32.9744 -92.9242 285° West 456 525 38,000  Level Fort Worth Center
12:45PM 33.0025 -93.0664 283° West 456 525 38,000  Level Fort Worth Center
12:46PM 33.0325 -93.2111 284° West 456 525 38,000  Level Fort Worth Center
12:47PM 33.0603 -93.3561 283° West 451 519 38,000  Level Fort Worth Center
12:48PM 33.0878 -93.5011 283° West 451 519 38,000  Level Fort Worth Center
12:49PM 33.1150 -93.6436 283° West 451 519 38,000  Level Fort Worth Center
12:50PM 33.1425 -93.7914 283° West 451 519 38,000  Level Fort Worth Center
12:51PM 33.1719 -93.9514 282° West 451 519 38,000  Level Fort Worth Center
12:52PM 33.2008 -94.0967 283° West 451 519 38,000  Level Fort Worth Center
12:53PM 33.2297 -94.2397 284° West 451 519 38,000  Level Fort Worth Center
12:54PM 33.2581 -94.3803 284° West 451 519 38,000  Level Fort Worth Center
12:55PM 33.2844 -94.5211 283° West 451 519 38,000  Level Fort Worth Center
12:56PM 33.3106 -94.6594 283° West 446 513 38,000  Level Fort Worth Center
12:57PM 33.3386 -94.7978 284° West 441 507 38,000  Level Fort Worth Center
12:58PM 33.3642 -94.9336 283° West 429 494 38,000  Level Fort Worth Center
12:59PM 33.3878 -95.0700 282° West 429 494 38,000  Level Fort Worth Center
01:00PM 33.4153 -95.2086 283° West 429 494 38,000  Level Fort Worth Center
01:01PM 33.4386 -95.3475 281° West 429 494 38,000  Level Fort Worth Center
01:02PM 33.4617 -95.4864 281° West 429 494 38,000  Level Fort Worth Center
01:03PM 33.4886 -95.6128 284° West 429 494 38,000 660 Level Fort Worth Center
01:04PM 33.5156 -95.7692 282° West 434 499 39,400 960 Climbing Fort Worth Center
01:05PM 33.5381 -95.8933 282° West 429 494 40,000 300 Climbing Fort Worth Center
01:06PM 33.5669 -96.0497 283° West 434 499 40,000  Level Fort Worth Center
01:07PM 33.5892 -96.1767 282° West 434 499 40,000  Level Fort Worth Center
01:08PM 33.6178 -96.3383 282° West 439 505 40,000  Level Fort Worth Center
01:09PM 33.6397 -96.4653 282° West 439 505 40,000  Level Fort Worth Center
01:10PM 33.6636 -96.6097 281° West 445 512 40,000  Level Fort Worth Center
01:11PM 33.6939 -96.7719 283° West 445 512 40,000  Level Fort Worth Center
01:12PM 33.7153 -96.8992 281° West 445 512 40,000  Level Fort Worth Center
01:13PM 33.7408 -97.0564 281° West 445 512 40,000  Level Fort Worth Center
01:14PM 33.7600 -97.2011 279° West 445 512 40,000  Level Fort Worth Center
01:15PM 33.7853 -97.3436 282° West 445 512 40,000  Level Fort Worth Center
01:16PM 33.8081 -97.4908 281° West 445 512 40,000  Level Fort Worth Center
01:17PM 33.8331 -97.6386 282° West 450 518 40,000  Level Fort Worth Center
01:18PM 33.8556 -97.7836 281° West 450 518 40,000  Level Fort Worth Center
01:19PM 33.8800 -97.9339 281° West 450 518 40,000  Level Fort Worth Center
01:20PM 33.9044 -98.0817 281° West 450 518 40,000  Level Fort Worth Center
01:21PM 33.9267 -98.2219 281° West 442 509 40,000  Level Fort Worth Center
01:22PM 33.9506 -98.3600 282° West 429 494 40,000  Level Fort Worth Center
01:23PM 33.9789 -98.4781 286° West 424 488 40,000  Level Fort Worth Center
01:24PM 34.0006 -98.6186 281° West 419 482 40,000  Level Fort Worth Center
01:25PM 34.0200 -98.7642 279° West 431 496 40,000  Level Fort Worth Center
01:26PM 34.0369 -98.9097 278° West 431 496 40,000  Level Fort Worth Center
01:27PM 34.0603 -99.0581 281° West 444 511 40,000  Level Fort Worth Center
01:28PM 34.0792 -99.2014 279° West 451 519 40,000  Level Fort Worth Center
01:29PM 34.0978 -99.3447 279° West 444 511 40,000  Level Fort Worth Center
01:30PM 34.1164 -99.4931 279° West 444 511 40,000  Level Fort Worth Center
01:31PM 34.1347 -99.6367 279° West 444 511 40,000  Level Fort Worth Center
01:32PM 34.1531 -99.7778 279° West 439 505 40,000  Level Fort Worth Center
01:33PM 34.1711 -99.9236 279° West 439 505 40,000  Level Fort Worth Center
01:34PM 34.1889 -100.0672 279° West 439 505 40,000  Level Fort Worth Center
01:35PM 34.2067 -100.2086 279° West 439 505 40,000  Level Fort Worth Center
01:36PM 34.2242 -100.3522 278° West 434 499 40,000  Level Fort Worth Center
01:37PM 34.2456 -100.5114 279° West 434 499 40,000  Level Fort Worth Center
01:38PM 34.2628 -100.6525 278° West 429 494 40,000  Level Fort Worth Center
01:39PM 34.2800 -100.7939 278° West 429 494 40,000  Level Fort Worth Center
01:40PM 34.2947 -100.9378 277° West 429 494 40,000  Level Fort Worth Center
01:41PM 34.3081 -101.0514 278° West 429 494 40,000  Level Fort Worth Center
01:42PM 34.3261 -101.2208 277° West 429 494 40,000  Level Fort Worth Center
01:43PM 34.3361 -101.3644 275° West 429 494 40,000  Level Fort Worth Center
01:44PM 34.3525 -101.5086 278° West 428 493 40,000  Level Fort Worth Center
01:45PM 34.3667 -101.6450 277° West 428 493 40,000  Level Fort Worth Center
01:46PM 34.3831 -101.7794 278° West 418 481 40,000  Level Fort Worth Center
01:47PM 34.4003 -101.9394 277° West 399 459 40,000  Level Albuquerque Center
01:49PM 34.4139 -102.0717 277° West 396 456 40,000  Level Albuquerque Center
01:50PM 34.4292 -102.2086 278° West 402 463 40,000  Level Albuquerque Center
01:51PM 34.4442 -102.3481 277° West 412 474 40,000  Level Albuquerque Center
01:52PM 34.4592 -102.4861 278° West 414 476 40,000  Level Albuquerque Center
01:53PM 34.4764 -102.6536 277° West 415 478 40,000  Level Albuquerque Center
01:54PM 34.4903 -102.7931 277° West 417 480 40,000  Level Albuquerque Center
01:55PM 34.5094 -102.9353 279° West 415 478 40,000  Level Albuquerque Center
01:56PM 34.5314 -103.0728 281° West 414 476 40,000  Level Albuquerque Center
01:57PM 34.5514 -103.2089 280° West 408 470 40,000  Level Albuquerque Center
01:58PM 34.5728 -103.3456 281° West 408 470 40,000  Level Albuquerque Center
01:59PM 34.5931 -103.4797 280° West 403 464 40,000  Level Albuquerque Center
02:00PM 34.6133 -103.6142 280° West 401 461 40,000  Level Albuquerque Center
02:01PM 34.6367 -103.7722 280° West 404 465 40,000  Level Albuquerque Center
02:02PM 34.6558 -103.9081 280° West 403 464 40,000  Level Albuquerque Center
02:03PM 34.6756 -104.0436 280° West 402 463 40,000  Level Albuquerque Center
02:04PM 34.6956 -104.1797 280° West 403 464 40,000  Level Albuquerque Center
02:05PM 34.7142 -104.3156 280° West 402 463 40,000  Level Albuquerque Center
02:06PM 34.7333 -104.4514 280° West 402 463 40,000  Level Albuquerque Center
02:07PM 34.7525 -104.5856 280° West 399 459 40,000  Level Albuquerque Center
02:08PM 34.7717 -104.7214 280° West 401 461 40,000  Level Albuquerque Center
02:09PM 34.7914 -104.8572 280° West 402 463 40,000  Level Albuquerque Center
02:10PM 34.8100 -104.9956 279° West 408 470 40,000  Level Albuquerque Center
02:11PM 34.8303 -105.1561 279° West 407 468 40,000 -120 Level Albuquerque Center
02:12PM 34.8483 -105.2928 279° West 406 467 39,800 -600 Descending Albuquerque Center
02:13PM 34.8664 -105.4272 279° West 401 461 38,800 -900 Descending Albuquerque Center
02:14PM 34.8831 -105.5606 279° West 396 456 38,000 -420 Descending Albuquerque Center
02:15PM 34.8994 -105.6894 279° West 387 445 38,000  Level Albuquerque Center
02:16PM 34.9172 -105.8208 279° West 388 447 38,000  Level Albuquerque Center
02:17PM 34.9308 -105.9386 278° West 392 451 38,000  Level Albuquerque Center
02:18PM 34.9494 -106.0983 278° West 395 455 38,000  Level Albuquerque Center
02:19PM 34.9653 -106.2306 278° West 396 456 38,000  Level Albuquerque Center
02:20PM 34.9811 -106.3628 278° West 394 453 38,000  Level Albuquerque Center
02:22PM 34.9967 -106.4953 278° West 395 455 38,000  Level Albuquerque Center
02:23PM 35.0136 -106.6503 278° West 407 468 38,000  Level Albuquerque Center
02:24PM 35.0281 -106.7764 278° West 398 458 38,000  Level Albuquerque Center
02:25PM 35.0472 -106.9181 279° West 383 441 38,000  Level Albuquerque Center
02:26PM 35.0614 -107.0433 278° West 386 444 38,000  Level Albuquerque Center
02:27PM 35.0781 -107.1861 278° West 383 441 38,000  Level Albuquerque Center
02:28PM 35.0881 -107.2936 277° West 388 447 38,000  Level Albuquerque Center
02:29PM 35.1056 -107.4489 278° West 386 444 38,000  Level Albuquerque Center
02:30PM 35.1206 -107.5794 278° West 383 441 38,000  Level Albuquerque Center
02:31PM 35.1353 -107.7061 278° West 389 448 38,000  Level Albuquerque Center
02:32PM 35.1508 -107.8550 277° West 392 451 38,000  Level Albuquerque Center
02:33PM 35.1636 -107.9825 277° West 394 453 38,000  Level Albuquerque Center
02:34PM 35.1814 -108.1306 278° West 394 453 38,000  Level Albuquerque Center
02:35PM 35.1928 -108.2606 276° West 397 457 38,000  Level Albuquerque Center
02:36PM 35.2078 -108.3889 278° West 397 457 38,000  Level Albuquerque Center
02:37PM 35.2228 -108.5400 277° West 399 459 38,000  Level Albuquerque Center
02:38PM 35.2367 -108.6694 278° West 399 459 38,000  Level Albuquerque Center
02:39PM 35.2508 -108.8239 276° West 404 465 38,000  Level Albuquerque Center
02:40PM 35.2644 -108.9550 277° West 405 466 38,000  Level Albuquerque Center
02:41PM 35.2792 -109.1067 277° West 403 464 38,000  Level Albuquerque Center
02:42PM 35.2917 -109.2392 277° West 404 465 38,000  Level Albuquerque Center
02:43PM 35.3047 -109.3708 277° West 405 466 38,000  Level Albuquerque Center
02:44PM 35.3181 -109.5228 276° West 403 464 38,000  Level Albuquerque Center
02:45PM 35.3308 -109.6531 277° West 400 460 38,000  Level Albuquerque Center
02:46PM 35.3442 -109.8056 276° West 404 465 38,000  Level Albuquerque Center
02:47PM 35.3556 -109.9336 276° West 401 461 38,000  Level Albuquerque Center
02:48PM 35.3650 -110.0658 275° West 405 466 38,000  Level Albuquerque Center
02:49PM 35.3792 -110.2164 277° West 400 460 38,000  Level Albuquerque Center
02:50PM 35.3889 -110.3431 275° West 394 453 38,000  Level Albuquerque Center
02:51PM 35.4000 -110.4906 275° West 391 450 38,000  Level Albuquerque Center
02:52PM 35.4111 -110.6189 276° West 393 452 38,000  Level Albuquerque Center
02:54PM 35.4300 -110.8239 277° West 396 456 38,000  Level Los Angeles Center
02:54PM 35.4350 -110.8989 275° West 399 459 38,000  Level Albuquerque Center
02:56PM 35.4481 -111.0497 276° West 399 459 38,000  Level Albuquerque Center
02:57PM 35.4594 -111.1806 276° West 401 461 38,000 -420 Level Albuquerque Center
02:58PM 35.4694 -111.3108 275° West 401 461 37,200 -1,800 Descending Albuquerque Center
02:59PM 35.4867 -111.5300 276° West 403 464 33,400 -2,580 Descending Los Angeles Center
03:00PM 35.4917 -111.5917 276° West 404 465 31,900 -2,280 Descending Albuquerque Center
03:01PM 35.5014 -111.7269 275° West 403 464 30,000 -960 Descending Albuquerque Center
03:02PM 35.5133 -111.8839 275° West 391 450 30,000  Level Albuquerque Center
03:03PM 35.5228 -112.0139 275° West 386 444 30,000  Level Albuquerque Center
03:04PM 35.5325 -112.1458 275° West 388 447 30,000  Level Albuquerque Center
03:05PM 35.5417 -112.2775 275° West 389 448 30,000  Level Albuquerque Center
03:06PM 35.5514 -112.4239 275° West 387 445 30,000  Level Albuquerque Center
03:06PM 35.5558 -112.4828 275° West 387 445 30,000  Level Los Angeles Center
03:07PM 35.5669 -112.6406 275° West 388 447 30,000 -180 Level Los Angeles Center
03:08PM 35.5758 -112.7739 275° West 390 449 29,700 -720 Descending Los Angeles Center
03:09PM 35.5844 -112.9042 275° West 386 444 28,600 -1,020 Descending Los Angeles Center
03:11PM 35.5925 -113.0272 275° West 377 434 27,600 -1,020 Descending Los Angeles Center
03:12PM 35.6011 -113.1525 275° West 372 428 26,600 -1,080 Descending Los Angeles Center
03:13PM 35.6100 -113.3039 274° West 370 426 25,400 -1,080 Descending Los Angeles Center
03:14PM 35.6175 -113.4244 274° West 360 414 24,400 -720 Descending Los Angeles Center
03:15PM 35.6242 -113.5450 274° West 355 409 24,000 -480 Descending Los Angeles Center
03:16PM 35.6411 -113.6644 280° West 355 409 23,500 -1,200 Descending Los Angeles Center
03:17PM 35.6578 -113.7758 280° West 340 391 21,600 -1,860 Descending Los Angeles Center
03:18PM 35.6733 -113.8856 280° West 330 380 19,700 -1,740 Descending Los Angeles Center
03:19PM 35.6872 -113.9936 279° West 324 373 18,000 -1,800 Descending Los Angeles Center
03:20PM 35.7050 -114.1175 280° West 312 359 16,000 -1,860 Descending Los Angeles Center
03:21PM 35.7203 -114.2222 280° West 309 356 14,200 -1,860 Descending Los Angeles Center
03:21PM 35.7322 -114.2894 282° West 316 364 13,000 -1,800 Descending Los Angeles Center
03:22PM 35.7339 -114.3278 273° West 311 358 12,400 -1,020 Descending Los Angeles Center
03:22PM 35.7564 -114.3872 295° West 304 350 12,000 -420 Descending Los Angeles Center
03:23PM 35.7817 -114.4006 337° Northwest 308 354 12,000  Level Los Angeles Center
03:24PM 35.8464 -114.4311 339° North 286 329 12,000  Level Los Angeles Center
03:24PM 35.8556 -114.4356 339° North 291 335 12,000  Level Los Angeles Center
03:25PM 35.9142 -114.4642 338° Northwest 283 326 12,000 -540 Level Los Angeles Center
03:25PM 35.9403 -114.4753 341° North 277 319 11,500 -1,020 Descending Los Angeles Center
03:26PM 35.9817 -114.4944 339° North 245 282 11,000 -900 Descending Los Angeles Center
03:26PM 36.0014 -114.5042 338° Northwest 252 290 10,600 -1,200 Descending Los Angeles Center
03:27PM 36.0364 -114.5267 333° Northwest 231 266 9,800 -1,200 Descending Los Angeles Center
03:27PM 36.0444 -114.5542 290° West 237 273 9,400 -1,320 Descending Los Angeles Center
03:28PM 36.0528 -114.6089 281° West 241 277 8,500 -1,200 Descending Los Angeles Center
03:28PM 36.0583 -114.6347 285° West 240 276 8,200 -480 Descending Los Angeles Center
03:29PM 36.0678 -114.6972 281° West 243 280 8,000 -240 Descending Los Angeles Center
03:29PM 36.0722 -114.7161 286° West 242 278 8,000 -360 Level Los Angeles Center
03:30PM 36.0731 -114.7700 271° West 237 273 7,700 -600 Descending Los Angeles Center
03:30PM 36.0775 -114.7972 281° West 240 276 7,400 -900 Descending Los Angeles Center
03:31PM 36.0736 -114.8603 266° West 240 276 6,700 -1,500 Descending Los Angeles Center
03:31PM 36.0750 -114.8975 273° West 240 276 5,900 -1,740 Descending Los Angeles Center
03:32PM 36.0731 -114.9564 268° West 238 274 4,800 -1,500 Descending Los Angeles Center
03:32PM 36.0739 -114.9797 273° West 240 276 4,400 -1,140 Descending Los Angeles Center
03:33PM 36.0739 -115.0200 270° West 197 227 3,800 -1,020 Descending Los Angeles Center
03:33PM 36.0742 -115.0444 271° West 216 249 3,400 -900 Descending Los Angeles Center
03:34PM 36.0725 -115.0817 267° West 163 188 2,800 -900 Descending Los Angeles Center
03:34PM 36.0739 -115.0983 276° West 183 211 2,500 -540 Descending Los Angeles Center
03:35PM 36.0739 -115.1467 270° West 160 184 2,100 -420 Descending Los Angeles Center
03:37PM 36.0667 -115.1500 270° West  Level FlightAware Approximate